sensor_id;sensor_type;location;lat;lon;timestamp;pressure;altitude;pressure_sealevel;temperature;humidity
57904;BME280;43720;47.462;19.030;2023-06-19T03:53:16;100310.88;;;16.41;95.93
57904;BME280;43720;47.462;19.030;2023-06-19T03:56:19;100304.75;;;16.37;96.28
57904;BME280;43720;47.462;19.030;2023-06-19T03:59:21;100313.50;;;16.41;95.12
57904;BME280;43720;47.462;19.030;2023-06-19T04:02:23;100310.84;;;16.46;96.32
57904;BME280;43720;47.462;19.030;2023-06-19T04:05:26;100305.53;;;16.50;96.56
57904;BME280;43720;47.462;19.030;2023-06-19T04:08:29;100305.34;;;16.64;95.86
57904;BME280;43720;47.462;19.030;2023-06-19T04:11:31;100304.41;;;16.74;96.26
57904;BME280;43720;47.462;19.030;2023-06-19T04:14:36;100309.56;;;16.85;96.33
57904;BME280;43720;47.462;19.030;2023-06-19T04:17:38;100305.19;;;16.79;96.24
57904;BME280;43720;47.462;19.030;2023-06-19T04:20:40;100304.38;;;16.77;97.24
57904;BME280;43720;47.462;19.030;2023-06-19T04:23:47;100305.16;;;16.85;97.71
57904;BME280;43720;47.462;19.030;2023-06-19T04:26:49;100301.53;;;16.93;97.68
57904;BME280;43720;47.462;19.030;2023-06-19T04:29:51;100305.66;;;17.14;96.49
57904;BME280;43720;47.462;19.030;2023-06-19T04:32:55;100308.16;;;17.24;94.90
57904;BME280;43720;47.462;19.030;2023-06-19T04:35:57;100311.47;;;17.37;94.72
57904;BME280;43720;47.462;19.030;2023-06-19T04:38:59;100301.66;;;17.45;95.06
57904;BME280;43720;47.462;19.030;2023-06-19T04:42:03;100304.06;;;17.60;93.96
57904;BME280;43720;47.462;19.030;2023-06-19T04:45:06;100310.94;;;17.72;94.15
57904;BME280;43720;47.462;19.030;2023-06-19T04:48:12;100308.13;;;17.84;93.61
57904;BME280;43720;47.462;19.030;2023-06-19T04:51:14;100316.81;;;17.94;91.17
57904;BME280;43720;47.462;19.030;2023-06-19T04:54:16;100314.94;;;18.01;90.51
57904;BME280;43720;47.462;19.030;2023-06-19T04:57:19;100312.22;;;18.05;91.60
57904;BME280;43720;47.462;19.030;2023-06-19T05:00:21;100313.97;;;18.05;89.08
57904;BME280;43720;47.462;19.030;2023-06-19T05:03:25;100319.31;;;18.02;91.57
57904;BME280;43720;47.462;19.030;2023-06-19T05:06:28;100320.97;;;18.07;88.48
57904;BME280;43720;47.462;19.030;2023-06-19T05:09:30;100327.06;;;18.13;89.87
57904;BME280;43720;47.462;19.030;2023-06-19T05:12:34;100323.31;;;18.26;90.54
57904;BME280;43720;47.462;19.030;2023-06-19T05:15:36;100326.59;;;18.40;88.60
57904;BME280;43720;47.462;19.030;2023-06-19T05:18:42;100335.31;;;18.45;89.79
57904;BME280;43720;47.462;19.030;2023-06-19T05:21:45;100342.31;;;18.48;88.56
57904;BME280;43720;47.462;19.030;2023-06-19T05:24:48;100347.44;;;18.58;88.51
57904;BME280;43720;47.462;19.030;2023-06-19T05:27:50;100343.72;;;18.66;87.14
57904;BME280;43720;47.462;19.030;2023-06-19T05:30:53;100346.13;;;18.81;85.99
57904;BME280;43720;47.462;19.030;2023-06-19T05:33:55;100347.59;;;18.96;81.65
57904;BME280;43720;47.462;19.030;2023-06-19T05:36:58;100339.38;;;19.10;81.85
57904;BME280;43720;47.462;19.030;2023-06-19T05:40:02;100344.19;;;19.31;80.29
57904;BME280;43720;47.462;19.030;2023-06-19T05:43:06;100347.47;;;19.42;78.53
57904;BME280;43720;47.462;19.030;2023-06-19T05:46:08;100339.41;;;19.48;78.88
57904;BME280;43720;47.462;19.030;2023-06-19T05:49:11;100344.53;;;19.56;79.61
57904;BME280;43720;47.462;19.030;2023-06-19T05:52:13;100342.56;;;19.66;78.57
57904;BME280;43720;47.462;19.030;2023-06-19T05:55:15;100344.22;;;19.70;77.36
57904;BME280;43720;47.462;19.030;2023-06-19T05:58:18;100347.75;;;19.70;77.16
57904;BME280;43720;47.462;19.030;2023-06-19T06:01:23;100360.62;;;19.86;76.08
57904;BME280;43720;47.462;19.030;2023-06-19T06:04:27;100359.53;;;19.96;76.62
57904;BME280;43720;47.462;19.030;2023-06-19T06:07:29;100354.91;;;20.04;75.18
57904;BME280;43720;47.462;19.030;2023-06-19T06:10:32;100356.53;;;20.10;73.92
57904;BME280;43720;47.462;19.030;2023-06-19T06:13:34;100356.06;;;20.28;70.25
57904;BME280;43720;47.462;19.030;2023-06-19T06:16:38;100356.78;;;20.35;69.92
57904;BME280;43720;47.462;19.030;2023-06-19T06:19:40;100357.41;;;20.44;69.62
57904;BME280;43720;47.462;19.030;2023-06-19T06:22:43;100357.12;;;20.57;69.61
57904;BME280;43720;47.462;19.030;2023-06-19T06:25:45;100356.78;;;20.69;68.31
57904;BME280;43720;47.462;19.030;2023-06-19T06:28:48;100359.16;;;20.78;68.86
57904;BME280;43720;47.462;19.030;2023-06-19T06:31:50;100354.50;;;20.86;69.32
57904;BME280;43720;47.462;19.030;2023-06-19T06:34:56;100362.31;;;20.92;69.79
57904;BME280;43720;47.462;19.030;2023-06-19T06:37:58;100362.97;;;21.00;67.70
57904;BME280;43720;47.462;19.030;2023-06-19T06:41:01;100371.78;;;21.03;68.08
57904;BME280;43720;47.462;19.030;2023-06-19T06:44:03;100366.28;;;21.09;68.26
57904;BME280;43720;47.462;19.030;2023-06-19T06:47:10;100365.09;;;21.19;68.44
57904;BME280;43720;47.462;19.030;2023-06-19T06:50:12;100361.16;;;21.32;67.59
57904;BME280;43720;47.462;19.030;2023-06-19T06:53:14;100367.97;;;21.42;68.17
57904;BME280;43720;47.462;19.030;2023-06-19T06:56:17;100364.94;;;21.55;65.31
57904;BME280;43720;47.462;19.030;2023-06-19T06:59:19;100355.06;;;21.58;66.34
57904;BME280;43720;47.462;19.030;2023-06-19T07:02:21;100360.94;;;21.69;66.18
57904;BME280;43720;47.462;19.030;2023-06-19T07:05:24;100370.31;;;21.81;65.04
57904;BME280;43720;47.462;19.030;2023-06-19T07:08:26;100359.34;;;21.92;64.23
57904;BME280;43720;47.462;19.030;2023-06-19T07:11:29;100364.19;;;22.06;62.17
57904;BME280;43720;47.462;19.030;2023-06-19T07:14:31;100366.84;;;22.06;62.46
57904;BME280;43720;47.462;19.030;2023-06-19T07:17:33;100353.22;;;22.16;59.99
57904;BME280;43720;47.462;19.030;2023-06-19T07:20:36;100358.78;;;22.35;59.55
57904;BME280;43720;47.462;19.030;2023-06-19T07:23:39;100353.41;;;22.37;59.81
57904;BME280;43720;47.462;19.030;2023-06-19T07:26:42;100354.12;;;22.42;59.96
57904;BME280;43720;47.462;19.030;2023-06-19T07:29:44;100351.22;;;22.48;60.58
57904;BME280;43720;47.462;19.030;2023-06-19T07:32:47;100344.41;;;22.66;58.48
57904;BME280;43720;47.462;19.030;2023-06-19T07:35:49;100344.88;;;22.77;57.97
57904;BME280;43720;47.462;19.030;2023-06-19T07:38:52;100349.97;;;22.83;57.61
57904;BME280;43720;47.462;19.030;2023-06-19T07:41:57;100349.69;;;22.92;59.16
57904;BME280;43720;47.462;19.030;2023-06-19T07:44:59;100349.53;;;22.95;60.66
57904;BME280;43720;47.462;19.030;2023-06-19T07:48:02;100345.03;;;22.98;60.80
57904;BME280;43720;47.462;19.030;2023-06-19T07:51:04;100350.56;;;23.16;60.27
57904;BME280;43720;47.462;19.030;2023-06-19T07:54:07;100348.97;;;23.34;60.07
57904;BME280;43720;47.462;19.030;2023-06-19T07:57:09;100349.94;;;23.55;59.99
57904;BME280;43720;47.462;19.030;2023-06-19T08:00:12;100341.28;;;23.72;58.63
57904;BME280;43720;47.462;19.030;2023-06-19T08:03:15;100341.72;;;23.83;57.36
57904;BME280;43720;47.462;19.030;2023-06-19T08:06:17;100338.28;;;24.02;56.96
57904;BME280;43720;47.462;19.030;2023-06-19T08:09:20;100338.41;;;23.99;54.63
57904;BME280;43720;47.462;19.030;2023-06-19T08:12:22;100347.25;;;23.79;56.44
57904;BME280;43720;47.462;19.030;2023-06-19T08:15:24;100343.00;;;23.73;57.34
57904;BME280;43720;47.462;19.030;2023-06-19T08:18:27;100353.69;;;23.73;57.40
57904;BME280;43720;47.462;19.030;2023-06-19T08:21:30;100351.44;;;23.84;56.60
57904;BME280;43720;47.462;19.030;2023-06-19T08:24:33;100343.59;;;23.81;57.47
57904;BME280;43720;47.462;19.030;2023-06-19T08:27:38;100347.59;;;23.91;55.95
57904;BME280;43720;47.462;19.030;2023-06-19T08:30:40;100343.19;;;24.12;55.47
57904;BME280;43720;47.462;19.030;2023-06-19T08:33:42;100336.25;;;24.29;53.68
57904;BME280;43720;47.462;19.030;2023-06-19T08:36:45;100333.69;;;24.48;55.90
57904;BME280;43720;47.462;19.030;2023-06-19T08:39:47;100335.13;;;24.55;55.83
57904;BME280;43720;47.462;19.030;2023-06-19T08:42:49;100338.28;;;24.64;55.82
57904;BME280;43720;47.462;19.030;2023-06-19T08:49:05;100336.56;;;24.63;53.67
57904;BME280;43720;47.462;19.030;2023-06-19T08:52:12;100336.34;;;24.68;53.82
57904;BME280;43720;47.462;19.030;2023-06-19T08:55:15;100340.53;;;24.94;52.07
57904;BME280;43720;47.462;19.030;2023-06-19T08:58:22;100327.25;;;25.11;50.74
57904;BME280;43720;47.462;19.030;2023-06-19T09:01:25;100325.69;;;25.26;50.74
57904;BME280;43720;47.462;19.030;2023-06-19T09:04:29;100326.47;;;25.28;51.15
57904;BME280;43720;47.462;19.030;2023-06-19T09:07:33;100323.94;;;25.44;48.26
57904;BME280;43720;47.462;19.030;2023-06-19T09:10:37;100322.78;;;25.50;48.81
57904;BME280;43720;47.462;19.030;2023-06-19T09:13:40;100322.03;;;25.65;49.71
57904;BME280;43720;47.462;19.030;2023-06-19T09:16:43;100317.81;;;25.78;49.29
57904;BME280;43720;47.462;19.030;2023-06-19T09:19:49;100322.37;;;25.95;48.61
57904;BME280;43720;47.462;19.030;2023-06-19T09:22:57;100313.00;;;26.04;48.96
57904;BME280;43720;47.462;19.030;2023-06-19T09:26:00;100324.81;;;26.17;48.26
57904;BME280;43720;47.462;19.030;2023-06-19T09:29:15;100327.88;;;26.09;47.76
57904;BME280;43720;47.462;19.030;2023-06-19T09:35:25;100320.50;;;26.15;46.00
57904;BME280;43720;47.462;19.030;2023-06-19T09:38:31;100313.56;;;26.10;47.46
57904;BME280;43720;47.462;19.030;2023-06-19T09:41:35;100309.59;;;26.00;47.42
57904;BME280;43720;47.462;19.030;2023-06-19T09:44:40;100316.78;;;26.00;47.63
57904;BME280;43720;47.462;19.030;2023-06-19T09:47:50;100310.47;;;26.18;47.61
57904;BME280;43720;47.462;19.030;2023-06-19T09:51:19;100309.53;;;26.19;46.47
57904;BME280;43720;47.462;19.030;2023-06-19T09:54:26;100311.09;;;26.23;46.23
57904;BME280;43720;47.462;19.030;2023-06-19T09:57:28;100310.22;;;26.40;46.54
57904;BME280;43720;47.462;19.030;2023-06-19T10:00:31;100304.06;;;26.73;45.27
57904;BME280;43720;47.462;19.030;2023-06-19T10:03:35;100299.06;;;26.82;42.37
57904;BME280;43720;47.462;19.030;2023-06-19T10:06:46;100286.78;;;26.94;41.87
57904;BME280;43720;47.462;19.030;2023-06-19T10:10:24;100286.69;;;27.13;43.07
57904;BME280;43720;47.462;19.030;2023-06-19T10:13:41;100290.16;;;27.31;42.17
57904;BME280;43720;47.462;19.030;2023-06-19T10:16:48;100281.66;;;27.39;41.79
57904;BME280;43720;47.462;19.030;2023-06-19T10:19:51;100287.47;;;27.47;40.61
57904;BME280;43720;47.462;19.030;2023-06-19T10:30:21;100278.59;;;27.61;41.24
57904;BME280;43720;47.462;19.030;2023-06-19T10:33:39;100281.97;;;27.80;39.32
57904;BME280;43720;47.462;19.030;2023-06-19T10:36:44;100273.84;;;27.82;40.21
57904;BME280;43720;47.462;19.030;2023-06-19T10:39:46;100257.34;;;27.88;39.29
57904;BME280;43720;47.462;19.030;2023-06-19T10:42:49;100269.88;;;28.03;41.00
57904;BME280;43720;47.462;19.030;2023-06-19T10:45:51;100264.44;;;28.19;41.05
57904;BME280;43720;47.462;19.030;2023-06-19T10:48:54;100264.41;;;28.35;39.29
57904;BME280;43720;47.462;19.030;2023-06-19T10:52:02;100269.44;;;28.25;36.55
57904;BME280;43720;47.462;19.030;2023-06-19T10:55:04;100264.47;;;28.33;37.53
57904;BME280;43720;47.462;19.030;2023-06-19T10:58:07;100263.84;;;28.44;37.78
57904;BME280;43720;47.462;19.030;2023-06-19T11:01:10;100262.91;;;28.59;37.48
57904;BME280;43720;47.462;19.030;2023-06-19T11:04:14;100271.72;;;28.75;35.96
57904;BME280;43720;47.462;19.030;2023-06-19T11:07:17;100256.56;;;28.89;37.21
57904;BME280;43720;47.462;19.030;2023-06-19T11:10:25;100250.47;;;29.14;35.09
57904;BME280;43720;47.462;19.030;2023-06-19T11:13:27;100259.06;;;29.75;34.96
57904;BME280;43720;47.462;19.030;2023-06-19T11:16:30;100257.03;;;30.69;32.67
57904;BME280;43720;47.462;19.030;2023-06-19T11:19:32;100249.38;;;31.38;30.70
57904;BME280;43720;47.462;19.030;2023-06-19T11:22:41;100246.31;;;31.42;30.80
57904;BME280;43720;47.462;19.030;2023-06-19T11:25:44;100245.34;;;32.38;31.83
57904;BME280;43720;47.462;19.030;2023-06-19T11:28:48;100238.66;;;33.00;29.55
57904;BME280;43720;47.462;19.030;2023-06-19T11:32:04;100247.63;;;33.11;30.02
57904;BME280;43720;47.462;19.030;2023-06-19T11:35:12;100252.03;;;33.67;28.71
57904;BME280;43720;47.462;19.030;2023-06-19T11:38:20;100239.28;;;33.79;28.71
57904;BME280;43720;47.462;19.030;2023-06-19T11:41:28;100236.16;;;33.19;28.04
57904;BME280;43720;47.462;19.030;2023-06-19T11:44:31;100225.22;;;32.42;28.82
57904;BME280;43720;47.462;19.030;2023-06-19T11:47:33;100227.16;;;32.40;30.10
57904;BME280;43720;47.462;19.030;2023-06-19T11:50:36;100219.66;;;31.97;29.62
57904;BME280;43720;47.462;19.030;2023-06-19T11:53:38;100218.59;;;32.00;30.83
57904;BME280;43720;47.462;19.030;2023-06-19T11:56:41;100222.41;;;32.08;31.67
57904;BME280;43720;47.462;19.030;2023-06-19T11:59:44;100232.12;;;31.76;32.38
57904;BME280;43720;47.462;19.030;2023-06-19T12:02:46;100224.78;;;31.54;31.76
57904;BME280;43720;47.462;19.030;2023-06-19T12:05:50;100224.91;;;31.52;32.25
57904;BME280;43720;47.462;19.030;2023-06-19T12:08:52;100226.59;;;31.29;31.54
57904;BME280;43720;47.462;19.030;2023-06-19T12:11:58;100227.59;;;31.15;30.68
57904;BME280;43720;47.462;19.030;2023-06-19T12:15:03;100225.28;;;30.98;31.55
57904;BME280;43720;47.462;19.030;2023-06-19T12:18:07;100216.06;;;31.13;32.77
57904;BME280;43720;47.462;19.030;2023-06-19T12:21:10;100207.63;;;31.18;32.09
57904;BME280;43720;47.462;19.030;2023-06-19T12:24:33;100205.41;;;31.23;32.58
57904;BME280;43720;47.462;19.030;2023-06-19T12:27:37;100205.88;;;31.17;32.97
57904;BME280;43720;47.462;19.030;2023-06-19T12:30:40;100196.66;;;30.96;32.46
57904;BME280;43720;47.462;19.030;2023-06-19T12:33:42;100184.53;;;30.52;33.47
57904;BME280;43720;47.462;19.030;2023-06-19T12:36:47;100196.81;;;30.43;34.67
57904;BME280;43720;47.462;19.030;2023-06-19T12:39:52;100196.59;;;30.59;33.18
57904;BME280;43720;47.462;19.030;2023-06-19T12:42:54;100190.25;;;30.47;34.08
57904;BME280;43720;47.462;19.030;2023-06-19T12:45:57;100188.22;;;30.38;33.13
57904;BME280;43720;47.462;19.030;2023-06-19T12:49:01;100179.16;;;30.26;32.99
57904;BME280;43720;47.462;19.030;2023-06-19T12:52:04;100183.22;;;30.57;33.24
57904;BME280;43720;47.462;19.030;2023-06-19T12:55:07;100180.03;;;30.89;32.99
57904;BME280;43720;47.462;19.030;2023-06-19T12:58:09;100178.47;;;31.10;32.64
57904;BME280;43720;47.462;19.030;2023-06-19T13:01:12;100169.81;;;31.05;33.16
57904;BME280;43720;47.462;19.030;2023-06-19T13:04:14;100174.22;;;30.95;32.59
57904;BME280;43720;47.462;19.030;2023-06-19T13:07:17;100169.25;;;31.13;30.89
57904;BME280;43720;47.462;19.030;2023-06-19T13:10:19;100170.53;;;30.96;31.62
57904;BME280;43720;47.462;19.030;2023-06-19T13:13:22;100163.56;;;30.81;33.03
57904;BME280;43720;47.462;19.030;2023-06-19T13:16:24;100165.03;;;30.85;33.29
57904;BME280;43720;47.462;19.030;2023-06-19T13:19:47;100163.69;;;31.03;31.44
57904;BME280;43720;47.462;19.030;2023-06-19T13:22:49;100156.66;;;30.77;30.67
57904;BME280;43720;47.462;19.030;2023-06-19T13:25:51;100149.06;;;30.82;33.30
57904;BME280;43720;47.462;19.030;2023-06-19T13:28:54;100153.81;;;30.78;33.44
57904;BME280;43720;47.462;19.030;2023-06-19T13:32:00;100159.56;;;30.74;32.95
57904;BME280;43720;47.462;19.030;2023-06-19T13:35:06;100151.38;;;30.75;33.81
57904;BME280;43720;47.462;19.030;2023-06-19T13:38:09;100155.47;;;30.68;32.64
57904;BME280;43720;47.462;19.030;2023-06-19T13:41:12;100158.63;;;30.75;32.25
57904;BME280;43720;47.462;19.030;2023-06-19T13:44:15;100152.25;;;30.76;32.63
57904;BME280;43720;47.462;19.030;2023-06-19T13:47:17;100150.94;;;30.68;32.60
57904;BME280;43720;47.462;19.030;2023-06-19T13:50:20;100156.78;;;30.50;33.99
57904;BME280;43720;47.462;19.030;2023-06-19T13:53:22;100155.16;;;29.96;33.98
57904;BME280;43720;47.462;19.030;2023-06-19T13:56:26;100161.06;;;29.63;36.03
57904;BME280;43720;47.462;19.030;2023-06-19T13:59:28;100154.19;;;29.32;32.63
57904;BME280;43720;47.462;19.030;2023-06-19T14:02:30;100155.72;;;29.09;34.25
57904;BME280;43720;47.462;19.030;2023-06-19T14:05:33;100153.13;;;28.93;35.87
57904;BME280;43720;47.462;19.030;2023-06-19T14:08:37;100158.72;;;28.75;37.21
57904;BME280;43720;47.462;19.030;2023-06-19T14:11:42;100161.06;;;28.53;35.42
57904;BME280;43720;47.462;19.030;2023-06-19T14:14:45;100151.38;;;28.50;36.74
57904;BME280;43720;47.462;19.030;2023-06-19T14:17:48;100152.16;;;28.38;38.81
57904;BME280;43720;47.462;19.030;2023-06-19T14:20:50;100150.78;;;28.31;39.23
57904;BME280;43720;47.462;19.030;2023-06-19T14:23:53;100145.97;;;28.22;40.35
57904;BME280;43720;47.462;19.030;2023-06-19T14:26:56;100142.22;;;28.10;39.89
57904;BME280;43720;47.462;19.030;2023-06-19T14:29:58;100137.41;;;28.01;40.40
57904;BME280;43720;47.462;19.030;2023-06-19T14:33:00;100146.81;;;28.22;39.35
57904;BME280;43720;47.462;19.030;2023-06-19T14:36:04;100139.69;;;28.79;36.78
57904;BME280;43720;47.462;19.030;2023-06-19T14:39:07;100144.28;;;29.05;36.58
57904;BME280;43720;47.462;19.030;2023-06-19T14:42:10;100147.31;;;29.13;36.22
57904;BME280;43720;47.462;19.030;2023-06-19T14:45:12;100148.22;;;28.99;38.20
57904;BME280;43720;47.462;19.030;2023-06-19T14:48:15;100145.47;;;28.72;37.95
57904;BME280;43720;47.462;19.030;2023-06-19T14:51:18;100143.19;;;28.52;36.02
57904;BME280;43720;47.462;19.030;2023-06-19T14:54:20;100138.28;;;28.30;38.78
57904;BME280;43720;47.462;19.030;2023-06-19T14:57:24;100145.00;;;28.09;41.37
57904;BME280;43720;47.462;19.030;2023-06-19T15:00:27;100143.28;;;27.93;41.07
57904;BME280;43720;47.462;19.030;2023-06-19T15:03:29;100146.59;;;27.83;42.43
57904;BME280;43720;47.462;19.030;2023-06-19T15:06:32;100141.78;;;27.73;43.24
57904;BME280;43720;47.462;19.030;2023-06-19T15:09:34;100144.75;;;27.69;44.90
57904;BME280;43720;47.462;19.030;2023-06-19T15:12:37;100135.37;;;27.90;43.25
